Time;durP1;ratioP1;P1;durP2;ratioP2;P2;SDS_P1;SDS_P2;PMS_P1;PMS_P2;Temp;Humidity;BMP_temperature;BMP_pressure;BME280_temperature;BME280_humidity;BME280_pressure;Samples;Min_cycle;Max_cycle;Signal;HPM_P1;HPM_P2
2023/02/02 00:02:22;;;;;;;4.70;3.10;;;;;;;1.44;77.05;96232.25;108820;1252;96081;-75
2023/02/02 00:04:50;;;;;;;5.20;2.70;;;;;;;1.45;77.16;96235.69;108878;1251;95978;-74
2023/02/02 00:07:18;;;;;;;3.50;2.50;;;;;;;1.46;77.23;96234.84;108888;1251;103602;-75
2023/02/02 00:09:46;;;;;;;4.30;2.60;;;;;;;1.48;77.29;96232.33;108911;1251;101383;-77
2023/02/02 00:12:15;;;;;;;10.20;5.60;;;;;;;1.50;77.28;96235.86;108914;1251;99677;-76
2023/02/02 00:14:43;;;;;;;6.10;3.20;;;;;;;1.53;77.23;96234.98;108676;1251;95631;-75
2023/02/02 00:17:11;;;;;;;5.00;3.40;;;;;;;1.55;77.13;96237.18;108899;1251;96094;-75
2023/02/02 00:19:39;;;;;;;7.80;4.90;;;;;;;1.58;77.22;96239.46;108936;1251;103279;-76
2023/02/02 00:22:08;;;;;;;6.20;4.10;;;;;;;1.61;77.38;96244.98;108906;1254;101207;-76
2023/02/02 00:24:36;;;;;;;5.70;3.80;;;;;;;1.63;77.25;96246.83;108896;1251;99978;-75
2023/02/02 00:27:04;;;;;;;4.70;2.40;;;;;;;1.64;77.21;96249.02;108608;1251;95922;-74
2023/02/02 00:29:32;;;;;;;3.70;2.60;;;;;;;1.64;77.24;96250.60;108914;1251;95946;-74
2023/02/02 00:32:00;;;;;;;4.50;2.50;;;;;;;1.63;77.37;96253.90;108893;1251;103562;-74
2023/02/02 00:34:28;;;;;;;4.10;2.60;;;;;;;1.60;77.48;96251.39;108906;1251;100999;-77
2023/02/02 00:36:57;;;;;;;5.10;3.70;;;;;;;1.58;77.47;96255.09;108892;1251;99499;-75
2023/02/02 00:39:26;;;;;;;4.60;2.60;;;;;;;1.55;77.61;96250.55;108857;1251;95611;-75
2023/02/02 00:41:54;;;;;;;3.60;2.20;;;;;;;1.53;77.65;96252.99;108802;1254;95963;-75
2023/02/02 00:47:08;;;;;;;4.50;3.30;;;;;;;1.52;77.87;96254.90;108867;1251;101610;-76
2023/02/02 00:49:36;;;;;;;5.80;3.30;;;;;;;1.52;78.07;96253.17;108890;1251;99979;-75
2023/02/02 00:52:05;;;;;;;3.70;3.10;;;;;;;1.52;78.05;96256.33;108773;1253;96016;-75
2023/02/02 00:54:33;;;;;;;2.80;1.90;;;;;;;1.49;77.89;96259.67;108848;1251;95984;-75
2023/02/02 00:57:01;;;;;;;3.60;2.00;;;;;;;1.46;77.98;96256.48;108864;1251;103674;-76
2023/02/02 00:59:29;;;;;;;1.90;1.10;;;;;;;1.43;77.81;96257.73;108855;1251;101250;-75
2023/02/02 01:01:57;;;;;;;2.40;1.20;;;;;;;1.39;77.71;96258.63;108808;1251;100391;-75
2023/02/02 01:04:25;;;;;;;2.20;1.10;;;;;;;1.33;77.90;96259.48;108842;1251;95596;-74
2023/02/02 01:06:54;;;;;;;2.70;1.30;;;;;;;1.31;78.06;96259.45;108873;1251;96033;-74
2023/02/02 01:09:22;;;;;;;3.00;1.60;;;;;;;1.29;77.92;96257.64;108875;1251;103597;-77
2023/02/02 01:11:50;;;;;;;3.20;1.60;;;;;;;1.29;78.01;96263.19;108913;1251;101419;-74
2023/02/02 01:14:18;;;;;;;2.50;1.50;;;;;;;1.28;78.14;96264.72;108842;1251;99539;-77
2023/02/02 01:16:46;;;;;;;3.20;1.40;;;;;;;1.26;78.35;96256.09;108689;1253;95633;-77
2023/02/02 01:19:15;;;;;;;2.30;1.40;;;;;;;1.25;78.42;96267.40;108691;1251;96059;-74
2023/02/02 01:21:44;;;;;;;1.40;1.10;;;;;;;1.24;78.56;96260.60;108917;1251;103403;-76
2023/02/02 01:24:12;;;;;;;1.20;0.90;;;;;;;1.20;78.41;96265.09;108863;1251;101503;-74
2023/02/02 01:26:40;;;;;;;1.80;1.40;;;;;;;1.16;78.54;96271.69;108846;1251;99834;-74
2023/02/02 01:29:08;;;;;;;1.30;1.20;;;;;;;1.15;78.74;96271.59;108786;1253;96133;-75
2023/02/02 01:31:36;;;;;;;1.80;1.30;;;;;;;1.15;78.81;96275.55;108893;1251;96479;-74
2023/02/02 01:34:04;;;;;;;1.60;1.20;;;;;;;1.15;79.00;96266.15;108829;1251;103604;-74
2023/02/02 01:36:33;;;;;;;1.80;1.20;;;;;;;1.13;79.10;96267.25;108921;1251;101750;-74
2023/02/02 01:39:01;;;;;;;1.60;1.30;;;;;;;1.14;79.22;96268.88;108925;1251;99847;-75
2023/02/02 01:41:29;;;;;;;2.10;1.10;;;;;;;1.16;79.09;96271.81;108672;1257;95640;-74
2023/02/02 01:44:03;;;;;;;1.70;0.90;;;;;;;1.14;79.25;96281.63;108864;1251;95975;-73
2023/02/02 01:46:36;;;;;;;1.30;0.70;;;;;;;1.05;79.18;96284.52;108896;1251;103498;-73
2023/02/02 01:49:14;;;;;;;1.50;1.00;;;;;;;1.04;79.25;96283.84;108741;1250;100437;-77
2023/02/02 01:51:50;;;;;;;1.70;1.10;;;;;;;1.06;79.44;96292.11;108872;1251;99550;-74
2023/02/02 01:54:27;;;;;;;1.60;1.10;;;;;;;1.09;79.47;96286.95;108762;1252;95542;-76
2023/02/02 01:57:00;;;;;;;0.80;0.80;;;;;;;1.11;79.42;96290.45;108857;1251;96466;-74
2023/02/02 01:59:31;;;;;;;1.40;0.90;;;;;;;1.12;79.42;96292.27;108896;1251;103486;-74
2023/02/02 02:02:00;;;;;;;0.60;0.50;;;;;;;1.10;79.55;96293.91;108946;1250;101380;-76
2023/02/02 02:04:30;;;;;;;1.80;0.60;;;;;;;1.11;79.53;96295.48;108678;1254;99815;-75
2023/02/02 02:07:01;;;;;;;1.30;0.60;;;;;;;1.11;79.50;96299.35;108609;1251;95657;-74
2023/02/02 02:09:30;;;;;;;0.90;0.30;;;;;;;1.09;79.49;96294.73;108896;1251;95984;-74
2023/02/02 02:11:58;;;;;;;0.30;0.30;;;;;;;1.08;79.41;96291.69;108881;1251;103452;-77
2023/02/02 02:17:32;;;;;;;3.10;0.60;;;;;;;1.07;79.37;96297.23;108899;1251;99801;-75
2023/02/02 02:27:04;;;;;;;2.80;0.90;;;;;;;1.06;79.74;96307.98;108936;1251;103535;-74
2023/02/02 02:30:09;;;;;;;0.90;0.70;;;;;;;1.03;79.85;96310.36;108899;1251;109646;-77
2023/02/02 02:33:34;;;;;;;0.60;0.60;;;;;;;1.05;80.00;96312.38;108811;1251;99890;-74
2023/02/02 02:36:19;;;;;;;0.60;0.60;;;;;;;1.07;79.91;96317.19;108261;1258;95708;-77
2023/02/02 02:39:01;;;;;;;0.60;0.60;;;;;;;1.04;79.88;96321.26;108269;1259;96046;-73
2023/02/02 02:41:37;;;;;;;1.20;0.80;;;;;;;1.04;80.05;96327.60;108312;1260;103056;-73
2023/02/02 02:44:13;;;;;;;0.80;0.60;;;;;;;1.05;80.10;96329.38;108298;1259;101256;-76
2023/02/02 02:46:41;;;;;;;1.10;0.80;;;;;;;1.05;80.13;96329.35;108267;1260;100104;-74
2023/02/02 02:49:12;;;;;;;0.50;0.50;;;;;;;1.08;80.19;96333.11;108281;1260;95695;-75
2023/02/02 02:51:49;;;;;;;1.10;0.60;;;;;;;1.08;80.21;96339.09;108264;1259;96098;-74
2023/02/02 02:54:44;;;;;;;1.00;0.60;;;;;;;1.07;80.11;96341.96;108322;1258;103575;-76
2023/02/02 02:57:34;;;;;;;1.30;0.80;;;;;;;1.03;80.15;96346.43;108320;1258;101335;-76
2023/02/02 03:00:40;;;;;;;3.00;1.20;;;;;;;0.96;80.06;96352.23;108262;1259;100047;-75
2023/02/02 03:03:14;;;;;;;3.50;1.00;;;;;;;0.90;80.31;96354.89;108243;1259;95730;-75
2023/02/02 03:06:07;;;;;;;2.80;1.20;;;;;;;0.84;80.54;96351.89;108345;1261;96099;-78
2023/02/02 03:08:52;;;;;;;4.00;1.60;;;;;;;0.84;80.54;96349.44;108863;1251;103602;-76
2023/02/02 03:11:21;;;;;;;4.50;1.50;;;;;;;0.87;80.59;96358.97;108918;1251;101086;-75
2023/02/02 03:13:49;;;;;;;3.60;1.50;;;;;;;0.91;80.70;96361.86;108860;1251;98497;-74
2023/02/02 03:16:18;;;;;;;5.60;1.30;;;;;;;0.93;80.57;96364.15;108831;1251;95603;-75
2023/02/02 03:18:46;;;;;;;4.10;1.50;;;;;;;0.94;80.65;96362.25;108849;1251;95753;-74
2023/02/02 03:21:14;;;;;;;6.40;1.40;;;;;;;0.95;80.55;96368.45;108888;1251;113202;-74
2023/02/02 03:23:42;;;;;;;4.20;1.50;;;;;;;0.98;80.43;96373.14;108876;1251;100521;-75
2023/02/02 03:26:10;;;;;;;7.80;2.00;;;;;;;1.01;80.50;96371.89;108899;1251;100020;-78
2023/02/02 03:28:39;;;;;;;6.20;1.70;;;;;;;1.03;80.49;96374.57;108861;1253;95584;-74
2023/02/02 03:31:07;;;;;;;5.90;2.10;;;;;;;1.04;80.43;96376.42;108884;1251;96008;-75
2023/02/02 03:33:37;;;;;;;4.70;1.90;;;;;;;1.07;80.50;96376.28;108916;1251;103853;-75
2023/02/02 03:36:06;;;;;;;7.70;2.60;;;;;;;1.09;80.42;96379.41;108843;1251;101311;-74
2023/02/02 03:38:34;;;;;;;13.20;2.70;;;;;;;1.10;80.41;96380.77;108610;1254;99862;-77
2023/02/02 03:41:02;;;;;;;5.80;1.70;;;;;;;1.10;80.39;96381.09;108857;1251;95580;-75
2023/02/02 03:43:30;;;;;;;9.10;2.80;;;;;;;1.12;80.40;96383.60;108889;1255;96029;-75
2023/02/02 03:46:00;;;;;;;7.70;1.70;;;;;;;1.13;80.26;96381.87;108917;1251;103623;-77
2023/02/02 03:48:28;;;;;;;10.80;2.10;;;;;;;1.15;80.18;96383.92;108693;1251;101566;-75
2023/02/02 03:50:57;;;;;;;13.30;2.40;;;;;;;1.17;80.09;96382.25;108879;1251;99853;-77
2023/02/02 03:53:26;;;;;;;12.30;2.60;;;;;;;1.19;80.03;96382.04;108839;1251;95511;-75
2023/02/02 03:55:54;;;;;;;6.90;1.90;;;;;;;1.21;80.07;96383.33;108896;1251;96137;-76
2023/02/02 03:58:22;;;;;;;11.20;2.70;;;;;;;1.24;79.92;96385.87;108932;1251;103496;-77
2023/02/02 04:00:50;;;;;;;8.90;2.50;;;;;;;1.27;79.87;96392.80;108918;1251;100286;-75
2023/02/02 04:03:18;;;;;;;11.00;2.30;;;;;;;1.30;79.81;96393.73;108901;1251;99910;-76
2023/02/02 04:05:50;;;;;;;7.40;2.00;;;;;;;1.31;79.84;96393.52;108890;1251;95828;-75
2023/02/02 04:08:18;;;;;;;14.90;2.70;;;;;;;1.32;79.89;96395.69;108886;1251;95574;-75
2023/02/02 04:10:46;;;;;;;8.70;2.80;;;;;;;1.33;79.72;96390.65;108855;1253;112360;-76
2023/02/02 04:13:14;;;;;;;9.10;3.00;;;;;;;1.33;79.68;96390.77;108914;1251;101558;-75
2023/02/02 04:15:42;;;;;;;6.90;2.20;;;;;;;1.35;79.64;96390.90;108885;1251;100045;-75
2023/02/02 04:18:11;;;;;;;11.90;2.90;;;;;;;1.36;79.55;96390.95;108687;1254;96494;-75
2023/02/02 04:20:39;;;;;;;6.50;2.00;;;;;;;1.37;79.50;96396.73;108890;1251;95984;-74
2023/02/02 04:23:07;;;;;;;11.40;2.50;;;;;;;1.37;79.34;96399.20;108894;1251;103205;-74
2023/02/02 04:25:35;;;;;;;11.00;2.30;;;;;;;1.37;79.26;96401.89;108906;1252;101272;-75
2023/02/02 04:28:03;;;;;;;12.10;2.10;;;;;;;1.38;79.27;96406.20;108881;1251;100121;-76
2023/02/02 04:30:31;;;;;;;9.00;2.40;;;;;;;1.40;79.21;96409.48;108802;1251;95869;-77
2023/02/02 04:33:00;;;;;;;8.80;2.20;;;;;;;1.41;79.10;96414.70;108897;1251;96046;-75
2023/02/02 04:35:28;;;;;;;11.20;2.50;;;;;;;1.41;79.09;96414.73;108885;1251;103250;-77
2023/02/02 04:37:56;;;;;;;9.50;2.20;;;;;;;1.41;79.01;96411.17;108918;1251;101208;-76
2023/02/02 04:40:24;;;;;;;10.20;1.90;;;;;;;1.43;79.00;96411.86;108879;1251;99644;-74
2023/02/02 04:42:53;;;;;;;11.00;2.40;;;;;;;1.43;78.92;96417.98;108889;1251;95555;-78
2023/02/02 04:45:21;;;;;;;15.40;2.30;;;;;;;1.42;78.84;96419.17;108884;1251;96026;-76
2023/02/02 04:47:49;;;;;;;11.40;2.40;;;;;;;1.42;78.89;96420.11;108860;1251;112067;-75
2023/02/02 04:50:17;;;;;;;20.80;4.60;;;;;;;1.43;78.81;96418.74;108902;1250;101297;-75
2023/02/02 04:52:45;;;;;;;10.40;2.50;;;;;;;1.48;79.20;96416.66;108676;1251;101175;-74
2023/02/02 04:55:13;;;;;;;10.30;2.90;;;;;;;1.54;79.26;96416.68;108798;1251;95731;-77
2023/02/02 04:57:42;;;;;;;14.20;3.10;;;;;;;1.54;78.81;96417.45;108854;1251;96491;-76
2023/02/02 05:00:11;;;;;;;16.20;3.40;;;;;;;1.52;78.74;96420.92;108513;1257;103466;-74
2023/02/02 05:02:41;;;;;;;12.00;3.10;;;;;;;1.50;78.76;96424.25;108917;1251;101410;-75
2023/02/02 05:05:12;;;;;;;6.40;2.20;;;;;;;1.51;78.66;96425.58;108894;1251;99898;-75
2023/02/02 05:07:41;;;;;;;13.20;2.80;;;;;;;1.50;78.55;96426.21;108871;1251;95541;-76
2023/02/02 05:10:10;;;;;;;17.10;2.90;;;;;;;1.49;78.53;96424.80;108946;1251;95952;-74
2023/02/02 05:12:38;;;;;;;14.30;4.80;;;;;;;1.48;78.50;96424.41;108691;1251;103483;-76
2023/02/02 05:15:07;;;;;;;10.80;4.30;;;;;;;1.48;78.45;96428.02;108902;1250;101047;-76
2023/02/02 05:17:35;;;;;;;12.30;3.20;;;;;;;1.52;78.62;96428.10;108892;1251;99889;-76
2023/02/02 05:20:03;;;;;;;9.00;2.70;;;;;;;1.57;78.77;96425.58;108852;1251;95561;-75
2023/02/02 05:22:31;;;;;;;10.50;3.80;;;;;;;1.59;78.47;96428.89;108851;1251;96591;-75
2023/02/02 05:24:59;;;;;;;11.10;3.60;;;;;;;1.59;78.31;96431.09;108904;1251;103632;-76
2023/02/02 05:27:27;;;;;;;9.80;3.30;;;;;;;1.59;78.18;96427.27;108921;1250;101011;-76
2023/02/02 05:29:56;;;;;;;13.30;3.50;;;;;;;1.62;78.06;96428.41;108823;1251;99598;-76
2023/02/02 05:32:24;;;;;;;11.20;2.70;;;;;;;1.63;77.87;96426.64;108782;1251;95577;-74
2023/02/02 05:34:52;;;;;;;16.60;3.50;;;;;;;1.63;77.76;96425.74;108905;1251;96072;-76
2023/02/02 05:37:20;;;;;;;11.90;2.80;;;;;;;1.65;77.62;96429.45;108913;1251;103053;-76
2023/02/02 05:39:48;;;;;;;13.70;2.50;;;;;;;1.66;77.40;96438.13;108902;1251;101305;-74
2023/02/02 05:42:16;;;;;;;16.50;5.10;;;;;;;1.67;77.32;96429.31;108843;1251;99708;-76
2023/02/02 05:44:44;;;;;;;10.10;4.00;;;;;;;1.70;77.37;96434.85;108646;1253;95565;-77
2023/02/02 05:47:13;;;;;;;15.30;2.80;;;;;;;1.71;77.34;96445.88;108666;1251;96608;-75
2023/02/02 05:49:41;;;;;;;13.00;3.80;;;;;;;1.72;77.23;96441.89;108753;1251;103451;-76
2023/02/02 05:52:17;;;;;;;14.80;4.30;;;;;;;1.72;77.18;96442.02;108906;1251;101452;-76
2023/02/02 05:54:45;;;;;;;9.50;3.40;;;;;;;1.72;77.21;96445.38;108883;1251;100158;-76
2023/02/02 05:57:13;;;;;;;15.50;7.40;;;;;;;1.72;77.12;96449.30;108879;1251;95508;-76
2023/02/02 05:59:41;;;;;;;14.60;4.10;;;;;;;1.72;77.13;96450.40;108798;1253;96516;-77
2023/02/02 06:02:10;;;;;;;12.70;3.30;;;;;;;1.71;77.05;96451.73;108915;1251;103747;-75
2023/02/02 06:04:38;;;;;;;10.50;2.70;;;;;;;1.71;76.92;96458.52;108909;1251;99227;-74
2023/02/02 06:07:06;;;;;;;12.60;2.90;;;;;;;1.70;76.89;96455.43;108878;1251;100194;-76
2023/02/02 06:09:34;;;;;;;13.00;3.50;;;;;;;1.70;76.91;96457.73;108851;1251;95655;-76
2023/02/02 06:12:02;;;;;;;11.50;2.80;;;;;;;1.70;76.68;96448.52;108908;1251;96011;-75
2023/02/02 06:14:30;;;;;;;17.10;3.60;;;;;;;1.70;76.64;96450.81;108866;1251;103300;-77
2023/02/02 06:16:58;;;;;;;9.80;2.90;;;;;;;1.70;76.64;96450.95;108912;1251;101462;-75
2023/02/02 06:19:26;;;;;;;8.90;4.10;;;;;;;1.71;76.66;96450.02;108699;1254;101363;-76
2023/02/02 06:21:54;;;;;;;13.70;4.80;;;;;;;1.71;76.75;96453.90;108884;1251;95639;-76
2023/02/02 06:24:23;;;;;;;12.70;3.50;;;;;;;1.70;76.84;96452.73;108893;1251;96057;-76
2023/02/02 06:26:51;;;;;;;12.50;4.50;;;;;;;1.70;76.67;96455.10;108904;1251;103514;-76
2023/02/02 06:29:19;;;;;;;18.60;6.60;;;;;;;1.69;76.78;96447.56;108944;1251;101330;-77
2023/02/02 06:31:47;;;;;;;14.40;6.20;;;;;;;1.68;76.75;96451.77;108869;1251;100064;-76
2023/02/02 06:34:15;;;;;;;18.60;7.90;;;;;;;1.67;76.66;96453.83;108653;1254;95619;-75
2023/02/02 06:36:43;;;;;;;12.30;4.40;;;;;;;1.66;76.61;96444.21;108719;1251;96110;-76
2023/02/02 06:39:11;;;;;;;10.20;3.00;;;;;;;1.65;76.46;96448.73;108899;1251;103501;-76
2023/02/02 06:41:40;;;;;;;9.60;2.80;;;;;;;1.65;76.46;96450.84;108924;1251;101142;-75
2023/02/02 06:44:08;;;;;;;6.00;2.20;;;;;;;1.66;76.32;96444.39;108876;1251;99948;-76
2023/02/02 06:46:36;;;;;;;10.60;3.50;;;;;;;1.69;76.19;96441.02;108919;1251;95527;-75
2023/02/02 06:49:04;;;;;;;22.30;9.60;;;;;;;1.72;76.24;96434.44;108935;1251;96005;-75
2023/02/02 06:51:32;;;;;;;42.30;17.70;;;;;;;1.74;76.19;96426.77;108929;1251;103509;-75
2023/02/02 06:54:02;;;;;;;27.10;11.80;;;;;;;1.76;76.14;96425.27;108866;1251;101337;-77
2023/02/02 06:56:30;;;;;;;31.50;13.20;;;;;;;1.78;76.10;96424.98;108890;1251;100221;-75
2023/02/02 06:58:58;;;;;;;44.80;17.50;;;;;;;1.82;76.11;96421.91;108847;1251;95526;-77
2023/02/02 07:01:26;;;;;;;54.70;23.30;;;;;;;1.86;75.89;96425.04;108943;1251;95967;-75
2023/02/02 07:03:54;;;;;;;18.60;9.50;;;;;;;1.90;75.96;96425.45;108735;1252;103544;-75
2023/02/02 07:06:28;;;;;;;17.60;6.80;;;;;;;1.91;75.89;96423.87;108923;1251;101294;-75
2023/02/02 07:08:57;;;;;;;18.10;5.80;;;;;;;1.94;75.79;96427.09;108852;1251;99914;-76
2023/02/02 07:11:25;;;;;;;22.10;9.20;;;;;;;1.97;75.61;96423.29;108919;1251;95611;-75
2023/02/02 07:13:54;;;;;;;14.70;7.60;;;;;;;2.02;75.76;96425.22;108880;1251;96442;-75
2023/02/02 07:16:22;;;;;;;13.10;4.50;;;;;;;2.05;75.73;96427.30;108933;1250;103356;-75
2023/02/02 07:18:50;;;;;;;10.40;3.80;;;;;;;2.05;75.67;96426.98;108949;1250;101356;-75
2023/02/02 07:21:21;;;;;;;17.80;5.70;;;;;;;2.05;75.70;96433.78;108876;1251;100006;-76
2023/02/02 07:23:50;;;;;;;12.70;6.10;;;;;;;2.05;75.70;96435.05;108847;1251;95553;-77
2023/02/02 07:26:20;;;;;;;9.10;2.80;;;;;;;2.05;75.68;96434.56;108918;1251;96025;-76
2023/02/02 07:28:48;;;;;;;7.10;3.10;;;;;;;2.06;75.58;96437.47;108736;1251;102190;-75
2023/02/02 07:31:21;;;;;;;8.00;4.30;;;;;;;2.06;75.45;96443.89;108956;1251;101643;-75
2023/02/02 07:33:50;;;;;;;9.30;4.10;;;;;;;2.05;75.44;96441.93;108915;1251;99970;-75
2023/02/02 07:36:21;;;;;;;12.60;3.70;;;;;;;2.04;75.35;96444.38;108910;1251;95543;-77
2023/02/02 07:38:53;;;;;;;11.30;3.50;;;;;;;2.03;75.31;96443.98;108941;1251;97481;-76
2023/02/02 07:41:21;;;;;;;1999.90;851.30;;;;;;;2.02;75.43;96447.25;108838;1253;103671;-76
2023/02/02 07:43:50;;;;;;;1999.90;999.90;;;;;;;2.06;75.84;96442.30;108663;1251;189889;-77
2023/02/02 07:46:20;;;;;;;1999.90;999.90;;;;;;;2.16;76.44;96436.88;108667;1253;99538;-78
2023/02/02 07:48:48;;;;;;;886.40;294.70;;;;;;;2.36;76.83;96431.52;108867;1251;95744;-76
2023/02/02 07:51:18;;;;;;;457.70;141.00;;;;;;;2.53;76.60;96427.98;108885;1251;96337;-77
2023/02/02 07:53:48;;;;;;;161.70;50.50;;;;;;;2.66;76.11;96430.27;108930;1251;103509;-77
2023/02/02 07:56:22;;;;;;;102.60;33.10;;;;;;;2.73;75.80;96430.95;108702;1252;101418;-77
2023/02/02 07:58:52;;;;;;;50.60;17.20;;;;;;;2.77;75.34;96432.71;108904;1251;99922;-77
2023/02/02 08:01:21;;;;;;;18.00;7.30;;;;;;;2.75;75.06;96437.24;108900;1251;95582;-77
2023/02/02 08:03:50;;;;;;;10.00;4.90;;;;;;;2.68;75.10;96437.88;108876;1251;96070;-77
2023/02/02 08:06:27;;;;;;;6.70;3.20;;;;;;;2.59;74.98;96439.48;108870;1251;103398;-75
2023/02/02 08:08:55;;;;;;;8.20;3.90;;;;;;;2.53;74.90;96438.20;108754;1251;100655;-76
2023/02/02 08:11:26;;;;;;;11.70;4.20;;;;;;;2.52;74.94;96431.42;108895;1251;99908;-75
2023/02/02 08:13:57;;;;;;;7.80;4.50;;;;;;;2.52;74.90;96430.39;108905;1251;95536;-75
2023/02/02 08:16:27;;;;;;;7.90;3.40;;;;;;;2.50;74.86;96433.61;108887;1251;95609;-75
2023/02/02 08:18:56;;;;;;;9.50;4.00;;;;;;;2.44;74.86;96442.19;108884;1251;103517;-75
2023/02/02 08:21:25;;;;;;;12.40;5.50;;;;;;;2.39;74.87;96444.52;108799;1253;101171;-76
2023/02/02 08:23:53;;;;;;;10.80;5.40;;;;;;;2.36;74.98;96449.38;108595;1251;100096;-76
2023/02/02 08:26:23;;;;;;;9.80;4.80;;;;;;;2.29;74.97;96449.16;108825;1251;95584;-75
2023/02/02 08:29:04;;;;;;;7.40;3.60;;;;;;;2.21;75.02;96441.21;108803;1252;96028;-77
2023/02/02 08:31:38;;;;;;;8.40;3.90;;;;;;;2.11;75.11;96440.82;108655;1252;103504;-76
2023/02/02 08:34:06;;;;;;;8.40;4.30;;;;;;;2.06;75.33;96443.11;108771;1253;101162;-76
2023/02/02 08:36:35;;;;;;;8.00;4.30;;;;;;;2.06;75.47;96443.15;108704;1253;98550;-75
2023/02/02 08:39:07;;;;;;;10.00;4.30;;;;;;;2.06;75.71;96444.55;108878;1251;95768;-75
2023/02/02 08:41:35;;;;;;;;;;;;;;;2.06;75.70;96440.05;108891;1251;95715;-77
2023/02/02 08:44:08;;;;;;;10.20;3.50;;;;;;;2.01;75.68;96438.30;108890;1251;103526;-75
2023/02/02 08:46:36;;;;;;;9.70;3.70;;;;;;;1.98;75.62;96434.10;108885;1250;100342;-75
2023/02/02 08:49:05;;;;;;;12.00;4.00;;;;;;;1.95;75.52;96432.27;108847;1251;100022;-76
2023/02/02 08:51:33;;;;;;;11.80;5.10;;;;;;;1.93;75.82;96431.34;108869;1251;95645;-77
2023/02/02 08:54:01;;;;;;;12.90;5.10;;;;;;;1.92;75.84;96425.42;108806;1252;96546;-75
2023/02/02 08:56:29;;;;;;;8.80;3.30;;;;;;;1.91;75.79;96424.80;108819;1251;103462;-75
2023/02/02 08:58:58;;;;;;;6.40;3.30;;;;;;;1.88;75.84;96427.78;108707;1250;100568;-75
2023/02/02 09:01:31;;;;;;;5.90;2.80;;;;;;;1.88;75.92;96424.78;108794;1252;99935;-75
2023/02/02 09:04:03;;;;;;;6.00;3.10;;;;;;;1.89;75.88;96429.35;108871;1251;95557;-74
2023/02/02 09:06:34;;;;;;;6.50;2.70;;;;;;;1.93;76.00;96440.74;108825;1251;95574;-75
2023/02/02 09:09:04;;;;;;;5.00;2.70;;;;;;;1.99;76.18;96444.17;108674;1251;103525;-75
2023/02/02 09:11:33;;;;;;;6.40;4.00;;;;;;;2.05;76.18;96441.59;108648;1254;101304;-75
2023/02/02 09:14:02;;;;;;;8.50;3.60;;;;;;;2.07;76.10;96452.64;108844;1252;100171;-75
2023/02/02 09:16:30;;;;;;;8.00;3.80;;;;;;;2.08;76.05;96450.96;108854;1251;95643;-75
2023/02/02 09:18:58;;;;;;;11.20;5.60;;;;;;;2.10;76.16;96451.98;108930;1251;96149;-77
2023/02/02 09:21:27;;;;;;;9.20;3.50;;;;;;;2.11;76.43;96453.48;108905;1252;103557;-74
2023/02/02 09:23:55;;;;;;;7.30;3.10;;;;;;;2.09;76.39;96457.17;108810;1251;101382;-76
2023/02/02 09:26:29;;;;;;;8.40;3.60;;;;;;;2.04;76.37;96453.87;108912;1251;98796;-77
2023/02/02 09:29:01;;;;;;;7.30;3.90;;;;;;;2.00;76.39;96456.67;108874;1251;95721;-76
2023/02/02 09:31:33;;;;;;;5.00;2.60;;;;;;;1.97;76.56;96456.70;108932;1251;95661;-77
2023/02/02 09:34:03;;;;;;;6.80;3.10;;;;;;;1.94;76.59;96457.96;108922;1250;103566;-75
2023/02/02 09:36:33;;;;;;;8.00;3.70;;;;;;;1.88;76.71;96461.15;108913;1251;100217;-75
2023/02/02 09:39:01;;;;;;;7.40;3.30;;;;;;;1.84;76.75;96454.36;108862;1251;99629;-74
2023/02/02 09:41:39;;;;;;;5.20;3.20;;;;;;;1.82;76.83;96453.51;108900;1251;95521;-75
2023/02/02 09:44:25;;;;;;;5.10;2.90;;;;;;;1.78;76.98;96452.89;108843;1251;96086;-74
2023/02/02 09:47:02;;;;;;;6.30;4.20;;;;;;;1.75;77.08;96458.80;108586;1253;103768;-74
2023/02/02 09:49:49;;;;;;;8.10;4.50;;;;;;;1.73;77.17;96450.34;108864;1252;100338;-74
2023/02/02 09:52:26;;;;;;;7.30;4.10;;;;;;;1.73;77.31;96453.98;108810;1252;100133;-75
2023/02/02 09:55:03;;;;;;;9.70;5.50;;;;;;;1.75;77.43;96452.75;108809;1252;95517;-75
2023/02/02 09:57:49;;;;;;;10.10;4.80;;;;;;;1.75;77.40;96453.20;108830;1251;96024;-76
2023/02/02 10:00:42;;;;;;;11.90;4.20;;;;;;;1.79;77.60;96449.80;108794;1250;103407;-77
2023/02/02 10:03:19;;;;;;;9.00;5.00;;;;;;;1.83;77.77;96451.94;108654;1251;100342;-75
2023/02/02 10:05:55;;;;;;;6.20;3.50;;;;;;;1.89;77.81;96455.42;108641;1251;98991;-76
2023/02/02 10:08:52;;;;;;;7.50;3.60;;;;;;;1.92;77.74;96456.66;108656;1252;95721;-75
2023/02/02 10:12:05;;;;;;;6.60;3.60;;;;;;;1.94;77.73;96453.05;108549;1255;96162;-75
2023/02/02 10:14:44;;;;;;;6.80;3.50;;;;;;;1.98;77.80;96456.83;108575;1256;103543;-76
2023/02/02 10:17:27;;;;;;;5.20;2.90;;;;;;;2.00;77.85;96451.55;108494;1256;101116;-75
2023/02/02 10:20:04;;;;;;;6.90;3.40;;;;;;;2.03;77.93;96446.91;108428;1256;99598;-76
2023/02/02 10:22:34;;;;;;;6.70;3.80;;;;;;;2.08;77.99;96446.01;108510;1256;95935;-75
2023/02/02 10:25:02;;;;;;;9.70;3.70;;;;;;;2.11;77.98;96448.64;108410;1255;96014;-75
2023/02/02 10:27:39;;;;;;;4.60;2.70;;;;;;;2.14;78.07;96441.94;108487;1256;103502;-75
2023/02/02 10:30:19;;;;;;;7.30;4.00;;;;;;;2.15;77.88;96444.55;108463;1256;101483;-75
2023/02/02 10:32:54;;;;;;;5.30;2.80;;;;;;;2.17;77.84;96444.36;108423;1256;98946;-75
2023/02/02 10:35:31;;;;;;;4.30;2.40;;;;;;;2.17;77.75;96444.69;108418;1256;96757;-75
2023/02/02 10:38:28;;;;;;;6.30;2.80;;;;;;;2.17;77.68;96450.63;108594;1256;96045;-75
2023/02/02 10:41:40;;;;;;;4.00;2.40;;;;;;;2.17;77.70;96449.68;108585;1255;103080;-77
2023/02/02 10:44:23;;;;;;;6.20;2.80;;;;;;;2.16;77.71;96456.36;108126;1262;101163;-76
2023/02/02 10:46:55;;;;;;;4.70;2.70;;;;;;;2.14;77.70;96458.58;108096;1262;100102;-75
2023/02/02 10:49:41;;;;;;;5.50;2.20;;;;;;;2.09;77.75;96458.31;108253;1258;95975;-75
2023/02/02 10:52:11;;;;;;;6.60;2.50;;;;;;;2.06;77.98;96468.23;108157;1257;96099;-77
2023/02/02 10:55:05;;;;;;;8.60;4.20;;;;;;;2.03;77.96;96470.36;108294;1259;103575;-77
2023/02/02 10:57:50;;;;;;;6.90;4.30;;;;;;;2.01;78.08;96468.68;108304;1259;101369;-76
2023/02/02 11:00:30;;;;;;;11.40;7.40;;;;;;;2.00;78.18;96465.63;108260;1257;99577;-78
2023/02/02 11:03:03;;;;;;;12.70;8.00;;;;;;;1.97;78.18;96467.54;108052;1258;95721;-76
2023/02/02 11:08:20;;;;;;;6.40;3.50;;;;;;;1.95;78.20;96463.73;108298;1258;103866;-77
2023/02/02 11:10:54;;;;;;;11.30;6.90;;;;;;;1.95;78.33;96473.65;108337;1257;100112;-77
2023/02/02 11:13:30;;;;;;;10.00;5.70;;;;;;;1.99;78.57;96480.57;108243;1257;107249;-76
2023/02/02 11:16:16;;;;;;;8.40;3.60;;;;;;;2.03;78.58;96473.89;108277;1257;95763;-77
2023/02/02 11:18:45;;;;;;;6.60;3.50;;;;;;;2.06;78.53;96478.73;108305;1257;96298;-78
2023/02/02 11:21:25;;;;;;;11.40;5.20;;;;;;;2.05;78.60;96483.20;108453;1252;103485;-76
2023/02/02 11:24:04;;;;;;;11.10;6.00;;;;;;;2.07;78.74;96488.02;108631;1253;101399;-77
2023/02/02 11:26:56;;;;;;;8.00;4.20;;;;;;;2.09;78.85;96488.02;108644;1251;100190;-76
2023/02/02 11:30:01;;;;;;;14.60;7.40;;;;;;;2.10;78.77;96494.70;108854;1251;95732;-75
2023/02/02 11:32:31;;;;;;;10.60;6.00;;;;;;;2.08;78.41;96487.16;108884;1251;96100;-76
2023/02/02 11:35:37;;;;;;;8.50;3.80;;;;;;;2.07;78.40;96492.63;108909;1251;103487;-77
2023/02/02 11:38:16;;;;;;;7.20;4.20;;;;;;;2.07;78.58;96494.89;108226;1259;101560;-76
2023/02/02 11:40:46;;;;;;;6.00;4.10;;;;;;;2.07;78.43;96498.42;108239;1259;99902;-76
2023/02/02 11:43:40;;;;;;;6.20;4.10;;;;;;;2.04;78.43;96500.93;108137;1259;95947;-76
2023/02/02 11:46:19;;;;;;;3.40;2.50;;;;;;;1.97;78.51;96499.79;108248;1259;96768;-76
2023/02/02 11:49:06;;;;;;;6.50;3.70;;;;;;;1.93;78.52;96503.57;108134;1259;102616;-76
2023/02/02 11:51:35;;;;;;;15.40;8.10;;;;;;;1.92;78.72;96500.11;108232;1259;101459;-75
2023/02/02 11:54:28;;;;;;;12.30;6.30;;;;;;;1.93;78.77;96502.05;108190;1259;100197;-77
2023/02/02 11:56:59;;;;;;;15.80;9.30;;;;;;;1.92;78.92;96502.55;108184;1259;95707;-76
2023/02/02 11:59:32;;;;;;;10.70;6.10;;;;;;;1.92;79.09;96502.70;108216;1259;95739;-77
2023/02/02 12:02:24;;;;;;;8.50;4.30;;;;;;;1.92;78.96;96496.31;108229;1259;103668;-76
2023/02/02 12:05:13;;;;;;;5.50;3.40;;;;;;;1.93;78.88;96502.67;108203;1259;101061;-78
2023/02/02 12:07:43;;;;;;;7.00;3.20;;;;;;;1.90;78.73;96504.05;108108;1259;98832;-77